Time;durP1;ratioP1;P1;durP2;ratioP2;P2;SDS_P1;SDS_P2;PMS_P1;PMS_P2;Temp;Humidity;BMP_temperature;BMP_pressure;BME280_temperature;BME280_humidity;BME280_pressure;Samples;Min_cycle;Max_cycle;Signal;HPM_P1;HPM_P2
2020/12/27 00:01:39;;;;;;;2.50;2.30;;;3.80;1.00;;;;;;5011817;28;20420;-65
2020/12/27 00:04:06;;;;;;;2.65;2.10;;;3.90;1.00;;;;;;5011989;28;20419;-64
2020/12/27 00:06:32;;;;;;;2.55;2.35;;;3.80;1.00;;;;;;5012028;28;20436;-64
2020/12/27 00:08:58;;;;;;;2.90;2.70;;;3.80;1.00;;;;;;5011643;28;20420;-62
2020/12/27 00:11:24;;;;;;;2.70;2.38;;;3.90;1.00;;;;;;5011832;28;20432;-65
2020/12/27 00:13:51;;;;;;;2.47;2.28;;;3.80;1.00;;;;;;5012037;28;20420;-65
2020/12/27 00:16:23;;;;;;;2.00;1.80;;;3.80;1.00;;;;;;5012021;28;20420;-65
2020/12/27 00:18:49;;;;;;;3.30;2.30;;;3.80;1.00;;;;;;5011705;28;20859;-62
2020/12/27 00:21:16;;;;;;;2.22;2.03;;;3.80;1.00;;;;;;5010209;28;21322;-65
2020/12/27 00:23:42;;;;;;;2.50;2.30;;;3.80;1.00;;;;;;5011051;28;20836;-65
2020/12/27 00:26:12;;;;;;;2.70;2.13;;;3.80;1.00;;;;;;5011225;28;20424;-65
2020/12/27 00:28:38;;;;;;;2.40;2.20;;;3.70;1.00;;;;;;5010981;28;20423;-65
2020/12/27 00:31:05;;;;;;;2.35;2.15;;;3.80;1.00;;;;;;5011352;28;20425;-66
2020/12/27 00:33:32;;;;;;;2.20;2.00;;;3.80;1.00;;;;;;5011142;28;20416;-65
2020/12/27 00:35:58;;;;;;;2.60;2.20;;;3.80;1.00;;;;;;5011378;28;20413;-65
2020/12/27 00:38:25;;;;;;;2.30;2.10;;;3.80;1.00;;;;;;5011114;28;20420;-65
2020/12/27 00:40:51;;;;;;;2.50;2.20;;;3.80;1.00;;;;;;5012332;28;20416;-65
2020/12/27 00:43:17;;;;;;;2.55;2.30;;;3.80;1.00;;;;;;5011106;28;20416;-64
2020/12/27 00:45:43;;;;;;;1.85;1.75;;;3.80;1.00;;;;;;5011254;28;20420;-64
2020/12/27 00:48:10;;;;;;;1.88;1.70;;;3.80;1.00;;;;;;5010841;28;20420;-65
2020/12/27 00:50:36;;;;;;;3.00;2.20;;;3.80;1.00;;;;;;5010979;28;20417;-65
2020/12/27 00:53:02;;;;;;;2.33;2.10;;;3.70;1.00;;;;;;5010620;28;20429;-64
2020/12/27 00:55:28;;;;;;;2.30;2.10;;;3.70;1.00;;;;;;5011218;28;20782;-64
2020/12/27 00:57:55;;;;;;;2.20;2.00;;;3.70;1.00;;;;;;5010657;28;20419;-64
2020/12/27 01:00:21;;;;;;;2.10;1.90;;;3.70;1.00;;;;;;5010897;28;20893;-65
2020/12/27 01:02:47;;;;;;;1.60;1.50;;;3.70;1.00;;;;;;5011016;28;20419;-65
2020/12/27 01:05:14;;;;;;;2.28;1.60;;;3.70;1.00;;;;;;5010961;28;20447;-65
2020/12/27 01:07:40;;;;;;;2.08;1.90;;;3.70;1.00;;;;;;5010378;28;20420;-65
2020/12/27 01:10:07;;;;;;;2.00;1.80;;;3.70;1.00;;;;;;5010880;28;20806;-64
2020/12/27 01:12:33;;;;;;;2.00;1.60;;;3.70;1.00;;;;;;5010838;28;20429;-65
2020/12/27 01:14:59;;;;;;;1.80;1.70;;;3.60;1.00;;;;;;5010589;28;20424;-65
2020/12/27 01:17:25;;;;;;;1.90;1.70;;;3.70;1.00;;;;;;5010194;28;20415;-62
2020/12/27 01:19:51;;;;;;;2.00;1.80;;;3.60;1.00;;;;;;5010765;28;20882;-65
2020/12/27 01:22:18;;;;;;;1.45;1.35;;;3.70;1.00;;;;;;5010188;28;20413;-65
2020/12/27 01:24:44;;;;;;;1.50;1.40;;;3.70;1.00;;;;;;5010996;28;20427;-64
2020/12/27 01:27:10;;;;;;;1.50;1.40;;;3.70;1.00;;;;;;5010377;28;20458;-62
2020/12/27 01:29:36;;;;;;;1.70;1.60;;;3.70;1.00;;;;;;5010373;28;20417;-63
2020/12/27 01:32:02;;;;;;;1.75;1.65;;;3.70;1.00;;;;;;5011148;28;20492;-63
2020/12/27 01:34:28;;;;;;;1.77;1.67;;;3.70;1.00;;;;;;5014149;28;20427;-63
2020/12/27 01:36:55;;;;;;;1.90;1.70;;;3.70;1.00;;;;;;5014079;28;20413;-63
2020/12/27 01:39:22;;;;;;;1.52;1.42;;;3.80;1.00;;;;;;5015026;28;20421;-63
2020/12/27 01:41:50;;;;;;;1.60;1.50;;;3.80;1.00;;;;;;5014276;28;20455;-63
2020/12/27 01:44:16;;;;;;;2.50;1.50;;;3.80;1.00;;;;;;5014009;28;21005;-63
2020/12/27 01:46:43;;;;;;;1.52;1.42;;;3.70;1.00;;;;;;5013900;28;20416;-63
2020/12/27 01:49:11;;;;;;;1.50;1.40;;;3.70;1.00;;;;;;5013635;28;20416;-63
2020/12/27 01:51:38;;;;;;;1.70;1.60;;;3.70;1.00;;;;;;5013779;28;20523;-64
2020/12/27 01:54:05;;;;;;;2.00;1.60;;;3.60;1.00;;;;;;5014119;28;20428;-64
2020/12/27 01:56:37;;;;;;;1.42;1.33;;;3.60;1.00;;;;;;5014017;28;20416;-63
2020/12/27 01:59:05;;;;;;;2.37;1.60;;;3.70;1.00;;;;;;5013664;28;20423;-63
2020/12/27 02:01:32;;;;;;;1.95;1.40;;;3.70;1.00;;;;;;5013522;28;20885;-64
2020/12/27 02:04:00;;;;;;;3.00;1.30;;;3.70;1.00;;;;;;5013449;28;20417;-63
2020/12/27 02:06:26;;;;;;;1.40;1.23;;;3.70;1.00;;;;;;5013541;28;20913;-63
2020/12/27 02:08:52;;;;;;;1.25;1.15;;;3.80;1.00;;;;;;5012932;28;20886;-64
2020/12/27 02:11:20;;;;;;;1.90;1.20;;;3.70;1.00;;;;;;5013642;28;20424;-63
2020/12/27 02:13:52;;;;;;;1.48;1.10;;;3.60;1.00;;;;;;5013388;28;20490;-64
2020/12/27 02:16:22;;;;;;;1.45;1.20;;;3.60;1.00;;;;;;5013252;28;20417;-63
2020/12/27 02:18:50;;;;;;;1.20;1.10;;;3.70;1.00;;;;;;5013120;28;20928;-63
2020/12/27 02:21:16;;;;;;;1.20;1.00;;;3.60;1.00;;;;;;5013385;28;20431;-64
2020/12/27 02:23:43;;;;;;;1.92;1.58;;;3.70;99.90;;;;;;5013370;28;20423;-65
2020/12/27 02:26:10;;;;;;;1.50;1.30;;;3.60;99.90;;;;;;5013182;28;20813;-63
2020/12/27 02:28:36;;;;;;;1.20;1.10;;;4.10;99.90;;;;;;5012756;28;20409;-64
2020/12/27 02:31:02;;;;;;;1.80;1.10;;;3.60;99.90;;;;;;5012880;28;20432;-63
2020/12/27 02:33:28;;;;;;;1.67;1.30;;;3.60;99.90;;;;;;5012842;28;20432;-63
2020/12/27 02:35:54;;;;;;;1.20;1.10;;;3.70;99.90;;;;;;5012722;28;20424;-63
2020/12/27 02:38:21;;;;;;;2.15;1.38;;;3.70;99.90;;;;;;5012453;28;20457;-63
2020/12/27 02:40:47;;;;;;;1.90;1.20;;;3.70;99.90;;;;;;5012769;28;20428;-63
2020/12/27 02:43:15;;;;;;;1.55;1.35;;;3.70;99.90;;;;;;5012547;28;20413;-63
2020/12/27 02:45:42;;;;;;;1.20;1.10;;;3.70;99.90;;;;;;5011851;28;20784;-63
2020/12/27 02:48:08;;;;;;;1.10;1.00;;;3.70;99.90;;;;;;5012730;28;20423;-63
2020/12/27 02:50:34;;;;;;;1.20;1.10;;;3.80;99.90;;;;;;5012725;28;20421;-63
2020/12/27 02:53:00;;;;;;;1.60;1.50;;;3.70;99.90;;;;;;5012518;28;20432;-64
2020/12/27 02:55:26;;;;;;;2.08;1.30;;;3.70;99.90;;;;;;5012630;28;20412;-63
2020/12/27 02:57:53;;;;;;;1.00;1.00;;;3.70;99.90;;;;;;5012017;28;20427;-63
2020/12/27 03:00:20;;;;;;;1.20;1.10;;;3.70;99.90;;;;;;5012694;28;20468;-63
2020/12/27 03:02:46;;;;;;;2.05;1.23;;;3.70;99.90;;;;;;5012625;28;20413;-63
2020/12/27 03:05:12;;;;;;;1.60;1.00;;;3.70;1.00;;;;;;5012841;28;20412;-63
2020/12/27 03:07:39;;;;;;;1.40;1.30;;;3.80;99.90;;;;;;5012350;28;20890;-64
2020/12/27 03:10:05;;;;;;;1.30;1.17;;;3.80;99.90;;;;;;5012269;28;20923;-63
2020/12/27 03:12:31;;;;;;;0.95;0.93;;;3.90;99.90;;;;;;5012249;28;20428;-63
2020/12/27 03:14:57;;;;;;;1.48;1.00;;;3.90;99.90;;;;;;5012247;28;20429;-63
2020/12/27 03:17:24;;;;;;;1.40;0.90;;;3.90;99.90;;;;;;5012405;28;20783;-63
2020/12/27 03:19:50;;;;;;;1.10;1.00;;;3.90;99.90;;;;;;5012514;28;20416;-63
2020/12/27 03:22:16;;;;;;;0.70;0.70;;;3.90;99.90;;;;;;5012257;28;20763;-64
2020/12/27 03:24:42;;;;;;;1.00;0.90;;;3.90;99.90;;;;;;5012318;28;20424;-63
2020/12/27 03:27:08;;;;;;;1.27;0.98;;;3.90;99.90;;;;;;5011952;28;20417;-63
2020/12/27 03:29:35;;;;;;;2.40;1.10;;;3.90;99.90;;;;;;5012337;28;20419;-63
2020/12/27 03:32:01;;;;;;;0.95;0.90;;;3.90;99.90;;;;;;5012288;28;20424;-63
2020/12/27 03:34:28;;;;;;;1.10;1.00;;;3.90;99.90;;;;;;5012482;28;20420;-64
2020/12/27 03:36:54;;;;;;;0.80;0.80;;;3.90;99.90;;;;;;5012047;28;20431;-63
2020/12/27 03:39:20;;;;;;;0.88;0.88;;;3.90;99.90;;;;;;5011801;28;20823;-63
2020/12/27 03:41:46;;;;;;;1.10;1.00;;;3.90;99.90;;;;;;5011869;28;20419;-63
2020/12/27 03:44:12;;;;;;;1.75;0.90;;;3.90;99.90;;;;;;5011461;28;20886;-63
2020/12/27 03:46:38;;;;;;;0.90;0.90;;;3.90;99.90;;;;;;5011980;28;20463;-63
2020/12/27 03:49:04;;;;;;;1.10;1.00;;;3.90;99.90;;;;;;5011345;28;20948;-64
2020/12/27 03:51:31;;;;;;;1.10;1.00;;;3.90;99.90;;;;;;5011630;28;20432;-64
2020/12/27 03:53:57;;;;;;;1.00;0.90;;;3.90;99.90;;;;;;5011658;28;20421;-63
2020/12/27 03:56:24;;;;;;;1.40;1.30;;;3.90;99.90;;;;;;5011103;28;20432;-64
2020/12/27 03:58:50;;;;;;;0.90;0.90;;;3.90;99.90;;;;;;5011479;28;20448;-63
2020/12/27 04:01:16;;;;;;;1.15;1.00;;;3.90;99.90;;;;;;5011799;28;20837;-63
2020/12/27 04:03:42;;;;;;;1.10;0.90;;;3.90;99.90;;;;;;5012544;28;20421;-63
2020/12/27 04:06:08;;;;;;;0.88;0.80;;;3.90;99.90;;;;;;5012570;28;20413;-63
2020/12/27 04:08:36;;;;;;;1.02;0.73;;;3.90;99.90;;;;;;5011468;28;20442;-63
2020/12/27 04:11:02;;;;;;;0.80;0.80;;;3.90;99.90;;;;;;5011917;28;20432;-63
2020/12/27 04:13:29;;;;;;;1.25;1.05;;;4.00;99.90;;;;;;5011881;28;20439;-63
2020/12/27 04:15:55;;;;;;;0.80;0.80;;;3.90;99.90;;;;;;5011347;28;20420;-63
2020/12/27 04:18:21;;;;;;;2.50;1.10;;;4.00;99.90;;;;;;5011346;28;20420;-63
2020/12/27 04:20:47;;;;;;;1.80;0.90;;;4.00;99.90;;;;;;5011137;28;20470;-63
2020/12/27 04:23:13;;;;;;;1.13;1.00;;;3.90;99.90;;;;;;5011267;28;20424;-63
2020/12/27 04:25:40;;;;;;;1.00;0.80;;;4.00;99.90;;;;;;5011006;28;20421;-63
2020/12/27 04:28:06;;;;;;;1.10;0.90;;;4.00;99.90;;;;;;5011104;28;20419;-63
2020/12/27 04:30:32;;;;;;;0.80;0.80;;;4.00;99.90;;;;;;5011159;28;20425;-63
2020/12/27 04:32:58;;;;;;;1.38;0.90;;;4.00;99.90;;;;;;5011178;28;20428;-63
2020/12/27 04:35:24;;;;;;;0.77;0.77;;;4.10;99.90;;;;;;5011252;28;20447;-63
2020/12/27 04:37:50;;;;;;;0.85;0.82;;;4.00;99.90;;;;;;5010540;28;20417;-63
2020/12/27 04:40:16;;;;;;;0.70;0.70;;;4.00;99.90;;;;;;5011393;28;20417;-63
2020/12/27 04:42:48;;;;;;;0.70;0.60;;;4.10;99.90;;;;;;5011148;28;20889;-63
2020/12/27 04:45:15;;;;;;;0.77;0.68;;;4.10;99.90;;;;;;5012534;28;20412;-63
2020/12/27 04:47:41;;;;;;;0.98;0.88;;;4.00;99.90;;;;;;5010833;28;20417;-63
2020/12/27 04:50:07;;;;;;;1.17;0.60;;;4.10;99.90;;;;;;5010980;28;20924;-63
2020/12/27 04:52:33;;;;;;;0.60;0.60;;;4.10;99.90;;;;;;5010830;28;20500;-63
2020/12/27 04:55:01;;;;;;;0.60;0.50;;;4.10;99.90;;;;;;5010898;28;20917;-64
2020/12/27 04:57:28;;;;;;;1.30;1.00;;;4.10;99.90;;;;;;5010757;28;20825;-63
2020/12/27 04:59:56;;;;;;;0.70;0.60;;;4.10;99.90;;;;;;5010739;28;20798;-63
2020/12/27 05:02:22;;;;;;;0.70;0.70;;;4.10;99.90;;;;;;5010809;28;20889;-63
2020/12/27 05:04:48;;;;;;;0.63;0.52;;;4.10;99.90;;;;;;5010878;28;20420;-63
2020/12/27 05:07:19;;;;;;;0.70;0.60;;;4.10;99.90;;;;;;5011596;28;20420;-63
2020/12/27 05:09:45;;;;;;;0.60;0.57;;;4.10;99.90;;;;;;5000224;28;20426;-63
2020/12/27 05:12:12;;;;;;;0.70;0.70;;;4.10;99.90;;;;;;4995087;28;20433;-63
2020/12/27 05:14:38;;;;;;;0.70;0.70;;;4.00;99.90;;;;;;4994761;28;20429;-63
2020/12/27 05:17:05;;;;;;;1.17;1.00;;;4.00;99.90;;;;;;4994844;28;20414;-63
2020/12/27 05:19:32;;;;;;;0.57;0.57;;;4.00;99.90;;;;;;4994392;28;20429;-63
2020/12/27 05:22:07;;;;;;;0.60;0.50;;;4.10;99.90;;;;;;4994877;28;20473;-63
2020/12/27 05:24:33;;;;;;;1.38;0.70;;;4.10;99.90;;;;;;4995191;28;20418;-63
2020/12/27 05:27:00;;;;;;;1.50;0.80;;;4.20;99.90;;;;;;4994563;28;20425;-63
2020/12/27 05:29:31;;;;;;;0.60;0.57;;;4.20;99.90;;;;;;4994638;28;20425;-63
2020/12/27 05:31:59;;;;;;;0.80;0.60;;;4.10;99.90;;;;;;4994551;28;20911;-63
2020/12/27 05:34:28;;;;;;;0.80;0.70;;;4.20;99.90;;;;;;4995147;28;20426;-63
2020/12/27 05:36:57;;;;;;;0.60;0.60;;;4.20;99.90;;;;;;4994836;28;20414;-63
2020/12/27 05:39:23;;;;;;;0.60;0.50;;;4.20;99.90;;;;;;4994360;28;20422;-63
2020/12/27 05:41:49;;;;;;;0.75;0.60;;;4.20;99.90;;;;;;4994615;28;20423;-63
2020/12/27 05:44:19;;;;;;;1.70;0.80;;;4.30;99.90;;;;;;4994395;28;20922;-63
2020/12/27 05:46:45;;;;;;;0.60;0.50;;;4.20;99.90;;;;;;4994292;28;20914;-63
2020/12/27 05:49:11;;;;;;;0.77;0.70;;;4.30;99.90;;;;;;4994141;28;20480;-63
2020/12/27 05:51:50;;;;;;;0.60;0.60;;;4.30;99.90;;;;;;4994228;28;20437;-63
2020/12/27 05:54:26;;;;;;;1.98;0.80;;;4.30;99.90;;;;;;4994399;28;20419;-62
2020/12/27 05:56:57;;;;;;;1.40;0.60;;;4.20;99.90;;;;;;4994292;28;20418;-63
2020/12/27 05:59:29;;;;;;;1.30;0.70;;;4.30;99.90;;;;;;4994064;28;20787;-63
2020/12/27 06:01:56;;;;;;;0.80;0.60;;;4.30;99.90;;;;;;4994305;28;20418;-63
2020/12/27 06:04:56;;;;;;;0.90;0.70;;;4.30;99.90;;;;;;4994469;28;20421;-63
2020/12/27 06:07:34;;;;;;;0.90;0.70;;;4.30;99.90;;;;;;4993726;28;20422;-63
2020/12/27 06:10:06;;;;;;;0.85;0.63;;;4.30;99.90;;;;;;4993830;28;20425;-63
2020/12/27 06:13:13;;;;;;;0.98;0.70;;;4.30;99.90;;;;;;4994178;28;20461;-63
2020/12/27 06:15:46;;;;;;;0.80;0.80;;;4.30;99.90;;;;;;4992044;28;20446;-63
2020/12/27 06:18:14;;;;;;;2.00;0.60;;;4.30;99.90;;;;;;4993083;28;20418;-63
2020/12/27 06:20:41;;;;;;;1.17;0.70;;;4.20;99.90;;;;;;4993115;28;20420;-63
2020/12/27 06:23:09;;;;;;;0.90;0.50;;;4.30;99.90;;;;;;4993650;28;20426;-63
2020/12/27 06:25:36;;;;;;;0.90;0.70;;;4.10;99.90;;;;;;4993440;28;20422;-63
2020/12/27 06:28:04;;;;;;;2.00;0.90;;;4.20;99.90;;;;;;4993482;28;20425;-63
2020/12/27 06:30:33;;;;;;;0.93;0.70;;;4.20;99.90;;;;;;4993589;28;20422;-63
2020/12/27 06:33:06;;;;;;;0.70;0.70;;;4.30;99.90;;;;;;4993599;28;20426;-63
2020/12/27 06:35:34;;;;;;;0.98;0.60;;;4.30;99.90;;;;;;4993529;28;20426;-63
2020/12/27 06:38:01;;;;;;;0.70;0.50;;;4.40;99.90;;;;;;4992960;28;20891;-63
2020/12/27 06:40:28;;;;;;;0.70;0.70;;;4.30;99.90;;;;;;4993601;28;20969;-63
2020/12/27 06:43:13;;;;;;;1.20;0.60;;;4.30;99.90;;;;;;4993368;28;20434;-63
2020/12/27 06:45:40;;;;;;;1.10;0.70;;;4.40;99.90;;;;;;4993552;28;20421;-63
2020/12/27 06:48:06;;;;;;;1.10;0.70;;;4.30;99.90;;;;;;4993055;28;20414;-63
2020/12/27 06:50:42;;;;;;;0.50;0.50;;;4.40;99.90;;;;;;4993127;28;20422;-63
2020/12/27 06:53:10;;;;;;;0.80;0.70;;;4.30;99.90;;;;;;4993309;28;20430;-63
2020/12/27 06:55:38;;;;;;;0.60;0.60;;;4.30;99.90;;;;;;4995256;28;20493;-63
2020/12/27 06:58:23;;;;;;;0.80;0.60;;;4.30;99.90;;;;;;4992689;28;20926;-63
2020/12/27 07:01:07;;;;;;;0.60;0.60;;;4.40;99.90;;;;;;4992198;28;20427;-63
2020/12/27 07:03:34;;;;;;;0.80;0.60;;;4.40;99.90;;;;;;4992723;28;20418;-63
2020/12/27 07:06:16;;;;;;;0.77;0.40;;;4.40;99.90;;;;;;4992703;28;20414;-63
2020/12/27 07:08:43;;;;;;;0.90;0.50;;;4.40;99.90;;;;;;4992310;28;20780;-63
2020/12/27 07:11:17;;;;;;;0.90;0.40;;;4.40;99.90;;;;;;4992873;28;20472;-63
2020/12/27 07:13:45;;;;;;;0.50;0.50;;;4.50;99.90;;;;;;4992358;28;20422;-63
2020/12/27 07:16:12;;;;;;;0.90;0.40;;;4.50;99.90;;;;;;4992654;28;20434;-63
2020/12/27 07:18:38;;;;;;;0.50;0.40;;;4.50;99.90;;;;;;4992543;28;20481;-63
2020/12/27 07:21:11;;;;;;;0.55;0.55;;;4.50;99.90;;;;;;4992712;28;20469;-63
2020/12/27 07:23:38;;;;;;;0.60;0.50;;;4.60;99.90;;;;;;4992613;28;20484;-63
2020/12/27 07:26:05;;;;;;;0.50;0.40;;;4.60;99.90;;;;;;4992257;28;20554;-63
2020/12/27 07:28:31;;;;;;;0.40;0.40;;;4.60;99.90;;;;;;4992375;28;20419;-63
2020/12/27 07:30:59;;;;;;;0.43;0.40;;;4.60;99.90;;;;;;4991879;28;20414;-63
2020/12/27 07:33:28;;;;;;;1.13;0.55;;;4.70;99.90;;;;;;4992176;28;20989;-63
2020/12/27 07:36:00;;;;;;;0.68;0.50;;;4.70;99.90;;;;;;4992084;28;20422;-63
2020/12/27 07:38:59;;;;;;;0.40;0.40;;;4.70;99.90;;;;;;4991991;28;20414;-63
2020/12/27 07:41:27;;;;;;;0.60;0.50;;;4.70;99.90;;;;;;4992066;28;20418;-63
2020/12/27 07:43:55;;;;;;;0.90;0.40;;;4.60;99.90;;;;;;4992202;28;20414;-63
2020/12/27 07:46:22;;;;;;;0.50;0.40;;;4.60;99.90;;;;;;4992311;28;20422;-63
2020/12/27 07:48:49;;;;;;;0.50;0.40;;;4.60;99.90;;;;;;4992122;28;20433;-64
2020/12/27 07:51:17;;;;;;;0.80;0.50;;;4.70;99.90;;;;;;4992261;28;20418;-63
2020/12/27 07:53:47;;;;;;;0.50;0.40;;;4.70;99.90;;;;;;4992313;28;20505;-63
2020/12/27 07:56:18;;;;;;;0.85;0.50;;;4.70;99.90;;;;;;4992002;28;20463;-63
2020/12/27 07:58:52;;;;;;;0.50;0.40;;;4.70;99.90;;;;;;4991824;28;21009;-63
2020/12/27 08:01:23;;;;;;;0.70;0.40;;;4.70;99.90;;;;;;4991784;28;20410;-63
2020/12/27 08:03:56;;;;;;;0.57;0.40;;;4.60;99.90;;;;;;4992127;28;20425;-63
2020/12/27 08:06:24;;;;;;;0.70;0.60;;;4.60;99.90;;;;;;4991677;28;20895;-63
2020/12/27 08:08:58;;;;;;;0.40;0.30;;;4.60;99.90;;;;;;4991581;28;20418;-63
2020/12/27 08:11:24;;;;;;;0.50;0.43;;;4.70;99.90;;;;;;4991990;28;20433;-63
2020/12/27 08:13:56;;;;;;;0.80;0.50;;;4.70;99.90;;;;;;4991605;28;20472;-63
2020/12/27 08:16:24;;;;;;;0.60;0.40;;;4.70;99.90;;;;;;4991767;28;20418;-63
2020/12/27 08:19:05;;;;;;;0.60;0.40;;;4.60;99.90;;;;;;4991550;28;20440;-63
2020/12/27 08:21:32;;;;;;;0.50;0.40;;;4.70;99.90;;;;;;4991648;28;20414;-63
2020/12/27 08:24:04;;;;;;;0.70;0.50;;;4.70;99.90;;;;;;4991841;28;20414;-63
2020/12/27 08:26:31;;;;;;;1.08;0.40;;;4.70;99.90;;;;;;4991408;28;20429;-63
2020/12/27 08:29:11;;;;;;;0.60;0.50;;;4.60;99.90;;;;;;4991364;28;20496;-63
2020/12/27 08:31:39;;;;;;;0.50;0.40;;;4.60;99.90;;;;;;4991714;28;20430;-63
2020/12/27 08:34:10;;;;;;;0.70;0.50;;;4.70;99.90;;;;;;4992083;28;20481;-63
2020/12/27 08:36:38;;;;;;;1.30;0.47;;;4.70;99.90;;;;;;4991599;28;20430;-63
2020/12/27 08:39:12;;;;;;;0.60;0.50;;;4.70;99.90;;;;;;4991537;28;20433;-63
2020/12/27 08:41:41;;;;;;;0.70;0.57;;;4.70;99.90;;;;;;4991988;28;20418;-63
2020/12/27 08:44:26;;;;;;;0.50;0.50;;;4.70;99.90;;;;;;4996037;28;20424;-63
2020/12/27 08:46:57;;;;;;;1.50;0.60;;;4.70;99.90;;;;;;4996022;28;20418;-63
2020/12/27 08:49:50;;;;;;;0.50;0.43;;;4.80;99.90;;;;;;4995555;28;20414;-63
2020/12/27 08:52:20;;;;;;;0.70;0.50;;;4.80;99.90;;;;;;4995236;28;20426;-64
2020/12/27 08:54:50;;;;;;;0.80;0.70;;;4.80;99.90;;;;;;4995669;28;20429;-63
2020/12/27 08:57:18;;;;;;;0.70;0.52;;;4.90;99.90;;;;;;4995338;28;20791;-63
2020/12/27 08:59:58;;;;;;;0.80;0.50;;;4.80;99.90;;;;;;4995343;28;20899;-63
2020/12/27 09:02:24;;;;;;;1.00;0.50;;;4.90;99.90;;;;;;4995315;28;20756;-63
2020/12/27 09:05:00;;;;;;;0.50;0.47;;;4.90;99.90;;;;;;4995273;28;20426;-63
2020/12/27 09:07:31;;;;;;;1.63;0.47;;;5.00;99.90;;;;;;4995258;28;20428;-63
2020/12/27 09:10:03;;;;;;;0.73;0.53;;;4.90;99.90;;;;;;4994929;28;20921;-63
2020/12/27 09:12:30;;;;;;;1.30;0.52;;;4.90;99.90;;;;;;4995287;28;20429;-63
2020/12/27 09:14:56;;;;;;;0.50;0.40;;;5.00;99.90;;;;;;4994928;28;20426;-63
2020/12/27 09:17:26;;;;;;;0.60;0.50;;;4.90;99.90;;;;;;4994946;28;21262;-63
2020/12/27 09:19:55;;;;;;;0.60;0.50;;;5.00;99.90;;;;;;4994608;28;20426;-63
2020/12/27 09:22:22;;;;;;;0.70;0.50;;;5.00;99.90;;;;;;4995329;28;20410;-63
2020/12/27 09:25:04;;;;;;;0.50;0.50;;;5.00;99.90;;;;;;4994787;28;20417;-63
2020/12/27 09:27:30;;;;;;;0.50;0.50;;;5.10;99.90;;;;;;4994619;28;20903;-64
2020/12/27 09:30:00;;;;;;;0.60;0.43;;;5.00;99.90;;;;;;4994367;28;20445;-64
2020/12/27 09:32:32;;;;;;;2.10;0.50;;;5.00;99.90;;;;;;4995018;28;20483;-64
2020/12/27 09:34:59;;;;;;;0.60;0.60;;;5.10;99.90;;;;;;4994670;28;20936;-64
2020/12/27 09:37:31;;;;;;;0.75;0.50;;;5.10;99.90;;;;;;4994452;28;20419;-64
2020/12/27 09:39:57;;;;;;;0.50;0.40;;;5.10;99.90;;;;;;4994415;28;20414;-64
2020/12/27 09:42:24;;;;;;;1.20;0.50;;;5.20;99.90;;;;;;4995198;28;20425;-64
2020/12/27 09:44:51;;;;;;;0.70;0.50;;;5.20;99.90;;;;;;4997119;28;20426;-64
2020/12/27 09:47:24;;;;;;;0.70;0.60;;;5.20;99.90;;;;;;4994837;28;20421;-64
2020/12/27 09:50:03;;;;;;;1.40;0.60;;;5.20;99.90;;;;;;4994391;28;20456;-63
2020/12/27 09:52:30;;;;;;;0.50;0.40;;;5.30;99.90;;;;;;4994318;28;20504;-63
2020/12/27 09:54:56;;;;;;;0.60;0.50;;;5.20;99.90;;;;;;4994397;28;20494;-63
2020/12/27 09:57:24;;;;;;;1.00;0.70;;;5.20;99.90;;;;;;4994967;28;20468;-63
2020/12/27 09:59:52;;;;;;;0.50;0.40;;;5.20;99.90;;;;;;4994620;28;20476;-64
2020/12/27 10:02:18;;;;;;;0.70;0.50;;;5.20;99.90;;;;;;4994786;28;20414;-63
2020/12/27 10:04:45;;;;;;;0.50;0.40;;;5.20;99.90;;;;;;4994628;28;20775;-63
2020/12/27 10:07:12;;;;;;;0.43;0.43;;;5.20;99.90;;;;;;4993872;28;20422;-63
2020/12/27 10:09:38;;;;;;;0.60;0.60;;;5.30;99.90;;;;;;4991666;28;20649;-63
2020/12/27 10:12:05;;;;;;;0.40;0.40;;;5.30;99.90;;;;;;4993439;28;20485;-63
2020/12/27 10:14:31;;;;;;;0.60;0.40;;;5.30;99.90;;;;;;4993773;28;20430;-63
2020/12/27 10:17:00;;;;;;;0.60;0.40;;;5.20;99.90;;;;;;4993668;28;20895;-62
2020/12/27 10:19:26;;;;;;;0.60;0.50;;;5.30;99.90;;;;;;4995133;28;20415;-63
2020/12/27 10:21:52;;;;;;;0.65;0.57;;;5.30;99.90;;;;;;4993821;28;20414;-62
2020/12/27 10:24:20;;;;;;;0.60;0.50;;;5.30;99.90;;;;;;4995496;28;20414;-63
2020/12/27 10:26:48;;;;;;;0.50;0.40;;;5.30;99.90;;;;;;4995034;28;20440;-63
2020/12/27 10:29:14;;;;;;;0.75;0.55;;;5.20;99.90;;;;;;4994305;28;20501;-63
2020/12/27 10:31:40;;;;;;;0.50;0.50;;;5.20;99.90;;;;;;4994012;28;20887;-63
2020/12/27 10:34:06;;;;;;;0.50;0.50;;;5.20;99.90;;;;;;4994710;28;20907;-62
2020/12/27 10:36:32;;;;;;;0.90;0.60;;;5.10;99.90;;;;;;4994117;28;20425;-62
2020/12/27 10:38:58;;;;;;;0.80;0.60;;;5.20;99.90;;;;;;4997802;28;20425;-63
2020/12/27 10:41:25;;;;;;;0.80;0.50;;;5.20;99.90;;;;;;4999293;28;20541;-62
2020/12/27 10:43:51;;;;;;;0.50;0.50;;;5.10;99.90;;;;;;4995879;28;20422;-63
2020/12/27 10:46:18;;;;;;;0.70;0.70;;;5.10;99.90;;;;;;4996143;28;20473;-62
2020/12/27 10:48:46;;;;;;;0.80;0.60;;;5.20;99.90;;;;;;4995313;28;20421;-62
2020/12/27 10:51:12;;;;;;;1.40;0.50;;;5.20;99.90;;;;;;4994992;28;20483;-62
2020/12/27 10:53:38;;;;;;;0.50;0.40;;;5.20;99.90;;;;;;4995204;28;20507;-62
2020/12/27 10:56:04;;;;;;;0.65;0.50;;;5.10;99.90;;;;;;4995134;28;20427;-63
2020/12/27 10:58:32;;;;;;;2.40;0.50;;;5.10;99.90;;;;;;4994948;28;20426;-63
2020/12/27 11:00:58;;;;;;;0.70;0.50;;;5.20;99.90;;;;;;4994474;28;20425;-62
2020/12/27 11:03:24;;;;;;;0.80;0.60;;;4.90;99.90;;;;;;4993655;28;20419;-62
2020/12/27 11:05:50;;;;;;;1.20;0.50;;;4.90;99.90;;;;;;4992872;28;20425;-62
2020/12/27 11:08:16;;;;;;;0.63;0.55;;;4.80;99.90;;;;;;4993056;28;20945;-63
2020/12/27 11:10:43;;;;;;;0.50;0.40;;;4.80;99.90;;;;;;4994096;28;20510;-63
2020/12/27 11:13:09;;;;;;;0.50;0.47;;;4.70;99.90;;;;;;4993597;28;20929;-62
2020/12/27 11:15:36;;;;;;;0.60;0.45;;;4.80;99.90;;;;;;4992910;28;20422;-62
2020/12/27 11:18:03;;;;;;;0.77;0.60;;;4.70;99.90;;;;;;4993088;28;20423;-63
2020/12/27 11:20:30;;;;;;;0.85;0.65;;;4.80;99.90;;;;;;4993227;28;20414;-64
2020/12/27 11:22:56;;;;;;;0.70;0.60;;;4.70;99.90;;;;;;4993560;28;20419;-63
2020/12/27 11:25:22;;;;;;;1.08;0.80;;;4.70;99.90;;;;;;4994594;28;20426;-63
2020/12/27 11:27:49;;;;;;;0.80;0.60;;;4.80;99.90;;;;;;4993408;28;20895;-62
2020/12/27 11:30:15;;;;;;;0.80;0.70;;;4.90;99.90;;;;;;4993428;28;20418;-62
2020/12/27 11:32:42;;;;;;;0.90;0.73;;;5.00;99.90;;;;;;4993501;28;20464;-63
2020/12/27 11:35:08;;;;;;;1.20;0.60;;;5.10;99.90;;;;;;4993515;28;20421;-63
2020/12/27 11:37:34;;;;;;;0.80;0.55;;;5.20;99.90;;;;;;4993126;28;20895;-63
2020/12/27 11:40:00;;;;;;;0.70;0.70;;;5.30;99.90;;;;;;4992656;28;20422;-63
2020/12/27 11:42:27;;;;;;;1.20;0.60;;;5.30;99.90;;;;;;4994196;28;20410;-63
2020/12/27 11:44:53;;;;;;;1.40;0.80;;;5.30;99.90;;;;;;4993676;28;20505;-63
2020/12/27 11:47:20;;;;;;;0.90;0.80;;;5.30;99.90;;;;;;4993343;28;20414;-63
2020/12/27 11:49:47;;;;;;;0.88;0.65;;;5.30;99.90;;;;;;4993820;28;20469;-63
2020/12/27 11:52:13;;;;;;;1.90;0.70;;;5.30;99.90;;;;;;4993851;28;20455;-63
2020/12/27 11:54:39;;;;;;;0.50;0.50;;;5.40;99.90;;;;;;4993959;28;20414;-62
2020/12/27 11:57:05;;;;;;;0.70;0.65;;;5.40;99.90;;;;;;4995347;28;20422;-64
2020/12/27 11:59:32;;;;;;;1.08;0.90;;;5.40;99.90;;;;;;4993070;28;20502;-63
2020/12/27 12:01:58;;;;;;;2.42;0.57;;;5.40;99.90;;;;;;4993415;28;20534;-64
2020/12/27 12:04:25;;;;;;;3.10;0.60;;;5.40;99.90;;;;;;4993750;28;20417;-63
2020/12/27 12:06:51;;;;;;;1.20;0.50;;;5.40;99.90;;;;;;4994410;28;20417;-63
2020/12/27 12:09:18;;;;;;;0.80;0.60;;;5.40;99.90;;;;;;4993248;28;20433;-63
2020/12/27 12:11:44;;;;;;;0.70;0.60;;;5.40;99.90;;;;;;4993337;28;20426;-63
2020/12/27 12:14:10;;;;;;;1.65;0.60;;;5.50;99.90;;;;;;4992640;28;20430;-63
2020/12/27 12:16:36;;;;;;;1.13;0.88;;;5.40;99.90;;;;;;4993220;28;20431;-62
2020/12/27 12:19:04;;;;;;;1.00;0.88;;;5.30;99.90;;;;;;4992985;28;21001;-62
2020/12/27 12:21:30;;;;;;;0.80;0.70;;;5.30;99.90;;;;;;4993434;28;20442;-61
2020/12/27 12:23:59;;;;;;;0.60;0.60;;;5.30;99.90;;;;;;4992790;28;20414;-61
2020/12/27 12:26:26;;;;;;;0.80;0.60;;;5.30;99.90;;;;;;4992987;28;20429;-62
2020/12/27 12:28:53;;;;;;;0.60;0.47;;;5.20;99.90;;;;;;4991941;28;20422;-64
2020/12/27 12:31:19;;;;;;;0.70;0.67;;;5.30;99.90;;;;;;4994280;28;20421;-63
2020/12/27 12:33:47;;;;;;;0.50;0.50;;;5.20;99.90;;;;;;4994036;28;20518;-63
2020/12/27 12:36:14;;;;;;;0.60;0.60;;;5.10;99.90;;;;;;5006871;28;20466;-62
2020/12/27 12:38:40;;;;;;;0.65;0.50;;;5.10;99.90;;;;;;5013337;28;20479;-62
2020/12/27 12:41:11;;;;;;;0.60;0.60;;;5.10;99.90;;;;;;5013344;28;20452;-63
2020/12/27 12:43:38;;;;;;;0.90;0.55;;;5.00;99.90;;;;;;5012094;28;20427;-62
2020/12/27 12:46:04;;;;;;;0.70;0.70;;;5.10;99.90;;;;;;5012689;28;20420;-63
2020/12/27 12:48:30;;;;;;;0.90;0.80;;;5.10;99.90;;;;;;5011836;28;20432;-62
2020/12/27 12:50:56;;;;;;;2.00;0.70;;;5.00;99.90;;;;;;5012896;28;20412;-64
2020/12/27 12:53:22;;;;;;;1.13;0.98;;;5.00;99.90;;;;;;5012685;28;20456;-62
2020/12/27 12:55:48;;;;;;;1.40;1.10;;;5.00;99.90;;;;;;5011998;28;20420;-62
2020/12/27 12:58:15;;;;;;;2.42;1.08;;;4.90;99.90;;;;;;5012423;28;20420;-62
2020/12/27 13:00:41;;;;;;;1.27;0.60;;;4.90;1.00;;;;;;5012361;28;20782;-62
2020/12/27 13:03:08;;;;;;;1.40;1.00;;;4.80;1.00;;;;;;5013448;28;20428;-64
2020/12/27 13:05:34;;;;;;;1.80;0.80;;;4.70;1.00;;;;;;5013056;28;20478;-63